sensor_id;sensor_type;location;lat;lon;timestamp;P1;durP1;ratioP1;P2;durP2;ratioP2
56455;SDS011;42354;53.218;6.564;2023-12-20T00:00:24;12.52;;;1.92;;
56455;SDS011;42354;53.218;6.564;2023-12-20T00:02:49;21.77;;;2.63;;
56455;SDS011;42354;53.218;6.564;2023-12-20T00:05:15;14.40;;;2.00;;
56455;SDS011;42354;53.218;6.564;2023-12-20T00:07:40;19.05;;;2.50;;
56455;SDS011;42354;53.218;6.564;2023-12-20T00:10:06;22.45;;;2.10;;
56455;SDS011;42354;53.218;6.564;2023-12-20T00:12:32;17.88;;;1.85;;
56455;SDS011;42354;53.218;6.564;2023-12-20T00:14:58;17.15;;;2.55;;
56455;SDS011;42354;53.218;6.564;2023-12-20T00:17:23;12.88;;;1.77;;
56455;SDS011;42354;53.218;6.564;2023-12-20T00:19:49;20.75;;;2.65;;
56455;SDS011;42354;53.218;6.564;2023-12-20T00:22:14;19.52;;;1.80;;
56455;SDS011;42354;53.218;6.564;2023-12-20T00:24:40;21.48;;;2.22;;
56455;SDS011;42354;53.218;6.564;2023-12-20T00:27:05;26.55;;;2.60;;
56455;SDS011;42354;53.218;6.564;2023-12-20T00:29:31;18.25;;;2.33;;
56455;SDS011;42354;53.218;6.564;2023-12-20T00:31:56;22.00;;;2.20;;
56455;SDS011;42354;53.218;6.564;2023-12-20T00:34:22;15.25;;;1.98;;
56455;SDS011;42354;53.218;6.564;2023-12-20T00:36:47;17.88;;;2.25;;
56455;SDS011;42354;53.218;6.564;2023-12-20T00:39:13;22.38;;;2.40;;
56455;SDS011;42354;53.218;6.564;2023-12-20T00:41:38;16.67;;;2.25;;
56455;SDS011;42354;53.218;6.564;2023-12-20T00:44:04;16.88;;;2.13;;
56455;SDS011;42354;53.218;6.564;2023-12-20T00:46:30;17.67;;;1.95;;
56455;SDS011;42354;53.218;6.564;2023-12-20T00:48:55;21.45;;;2.20;;
56455;SDS011;42354;53.218;6.564;2023-12-20T00:51:21;16.80;;;2.20;;
56455;SDS011;42354;53.218;6.564;2023-12-20T00:53:47;25.45;;;2.92;;
56455;SDS011;42354;53.218;6.564;2023-12-20T00:56:15;11.23;;;1.92;;
56455;SDS011;42354;53.218;6.564;2023-12-20T00:58:40;20.63;;;2.10;;
56455;SDS011;42354;53.218;6.564;2023-12-20T01:01:06;20.25;;;2.58;;
56455;SDS011;42354;53.218;6.564;2023-12-20T01:03:31;23.95;;;2.53;;
56455;SDS011;42354;53.218;6.564;2023-12-20T01:05:57;22.65;;;2.63;;
56455;SDS011;42354;53.218;6.564;2023-12-20T01:08:22;14.35;;;2.20;;
56455;SDS011;42354;53.218;6.564;2023-12-20T01:10:48;20.15;;;2.10;;
56455;SDS011;42354;53.218;6.564;2023-12-20T01:13:13;15.95;;;2.40;;
56455;SDS011;42354;53.218;6.564;2023-12-20T01:15:39;18.77;;;2.78;;
56455;SDS011;42354;53.218;6.564;2023-12-20T01:18:05;26.23;;;2.35;;
56455;SDS011;42354;53.218;6.564;2023-12-20T01:20:30;22.52;;;2.05;;
56455;SDS011;42354;53.218;6.564;2023-12-20T01:22:56;16.35;;;2.30;;
56455;SDS011;42354;53.218;6.564;2023-12-20T01:25:21;18.48;;;2.15;;
56455;SDS011;42354;53.218;6.564;2023-12-20T01:27:47;17.98;;;2.97;;
56455;SDS011;42354;53.218;6.564;2023-12-20T01:30:12;24.15;;;2.25;;
56455;SDS011;42354;53.218;6.564;2023-12-20T01:32:38;17.15;;;3.78;;
56455;SDS011;42354;53.218;6.564;2023-12-20T01:35:04;18.67;;;2.70;;
56455;SDS011;42354;53.218;6.564;2023-12-20T01:37:30;24.73;;;2.63;;
56455;SDS011;42354;53.218;6.564;2023-12-20T01:39:55;21.80;;;3.60;;
56455;SDS011;42354;53.218;6.564;2023-12-20T01:42:20;33.63;;;4.07;;
56455;SDS011;42354;53.218;6.564;2023-12-20T01:44:47;18.48;;;2.88;;
56455;SDS011;42354;53.218;6.564;2023-12-20T01:47:13;19.45;;;3.38;;
56455;SDS011;42354;53.218;6.564;2023-12-20T01:49:38;23.00;;;3.10;;
56455;SDS011;42354;53.218;6.564;2023-12-20T01:52:05;21.73;;;2.63;;
56455;SDS011;42354;53.218;6.564;2023-12-20T01:54:32;21.65;;;2.55;;
56455;SDS011;42354;53.218;6.564;2023-12-20T01:56:58;27.13;;;3.33;;
56455;SDS011;42354;53.218;6.564;2023-12-20T01:59:23;22.52;;;2.53;;
56455;SDS011;42354;53.218;6.564;2023-12-20T02:01:49;18.23;;;4.30;;
56455;SDS011;42354;53.218;6.564;2023-12-20T02:04:15;25.80;;;5.38;;
56455;SDS011;42354;53.218;6.564;2023-12-20T02:06:41;22.75;;;3.90;;
56455;SDS011;42354;53.218;6.564;2023-12-20T02:09:08;22.50;;;3.53;;
56455;SDS011;42354;53.218;6.564;2023-12-20T02:11:33;19.25;;;2.85;;
56455;SDS011;42354;53.218;6.564;2023-12-20T02:14:00;29.15;;;4.07;;
56455;SDS011;42354;53.218;6.564;2023-12-20T02:16:26;26.25;;;5.88;;
56455;SDS011;42354;53.218;6.564;2023-12-20T02:18:53;19.58;;;3.88;;
56455;SDS011;42354;53.218;6.564;2023-12-20T02:21:23;18.75;;;2.90;;
56455;SDS011;42354;53.218;6.564;2023-12-20T02:23:59;24.38;;;2.72;;
56455;SDS011;42354;53.218;6.564;2023-12-20T02:26:24;15.57;;;2.35;;
56455;SDS011;42354;53.218;6.564;2023-12-20T02:28:50;22.88;;;2.35;;
56455;SDS011;42354;53.218;6.564;2023-12-20T02:31:15;19.48;;;3.63;;
56455;SDS011;42354;53.218;6.564;2023-12-20T02:33:41;24.50;;;2.83;;
56455;SDS011;42354;53.218;6.564;2023-12-20T02:36:07;21.02;;;2.72;;
56455;SDS011;42354;53.218;6.564;2023-12-20T02:38:32;20.63;;;2.92;;
56455;SDS011;42354;53.218;6.564;2023-12-20T02:40:59;26.08;;;3.20;;
56455;SDS011;42354;53.218;6.564;2023-12-20T02:43:24;32.38;;;3.13;;
56455;SDS011;42354;53.218;6.564;2023-12-20T02:45:50;29.23;;;6.35;;
56455;SDS011;42354;53.218;6.564;2023-12-20T02:48:15;25.58;;;5.53;;
56455;SDS011;42354;53.218;6.564;2023-12-20T02:50:40;23.25;;;3.90;;
56455;SDS011;42354;53.218;6.564;2023-12-20T02:53:06;21.00;;;3.85;;
56455;SDS011;42354;53.218;6.564;2023-12-20T02:55:31;28.90;;;4.20;;
56455;SDS011;42354;53.218;6.564;2023-12-20T02:57:57;29.88;;;4.78;;
56455;SDS011;42354;53.218;6.564;2023-12-20T03:00:23;33.22;;;4.32;;
56455;SDS011;42354;53.218;6.564;2023-12-20T03:02:49;38.10;;;4.47;;
56455;SDS011;42354;53.218;6.564;2023-12-20T03:05:15;18.80;;;2.97;;
56455;SDS011;42354;53.218;6.564;2023-12-20T03:07:40;26.10;;;3.28;;
56455;SDS011;42354;53.218;6.564;2023-12-20T03:10:06;24.17;;;4.43;;
56455;SDS011;42354;53.218;6.564;2023-12-20T03:12:34;22.05;;;4.00;;
56455;SDS011;42354;53.218;6.564;2023-12-20T03:15:00;33.25;;;4.53;;
56455;SDS011;42354;53.218;6.564;2023-12-20T03:17:25;40.83;;;4.88;;
56455;SDS011;42354;53.218;6.564;2023-12-20T03:19:51;32.85;;;4.20;;
56455;SDS011;42354;53.218;6.564;2023-12-20T03:22:16;30.17;;;4.30;;
56455;SDS011;42354;53.218;6.564;2023-12-20T03:24:41;33.17;;;4.68;;
56455;SDS011;42354;53.218;6.564;2023-12-20T03:27:07;40.17;;;6.13;;
56455;SDS011;42354;53.218;6.564;2023-12-20T03:29:32;28.20;;;5.65;;
56455;SDS011;42354;53.218;6.564;2023-12-20T03:31:58;38.72;;;5.63;;
56455;SDS011;42354;53.218;6.564;2023-12-20T03:34:23;33.95;;;7.82;;
56455;SDS011;42354;53.218;6.564;2023-12-20T03:36:49;34.53;;;5.90;;
56455;SDS011;42354;53.218;6.564;2023-12-20T03:39:15;27.50;;;5.78;;
56455;SDS011;42354;53.218;6.564;2023-12-20T03:41:40;23.67;;;4.18;;
56455;SDS011;42354;53.218;6.564;2023-12-20T03:44:06;24.50;;;3.85;;
56455;SDS011;42354;53.218;6.564;2023-12-20T03:46:31;26.83;;;4.38;;
56455;SDS011;42354;53.218;6.564;2023-12-20T03:48:57;27.77;;;6.28;;
56455;SDS011;42354;53.218;6.564;2023-12-20T03:51:22;31.95;;;5.70;;
56455;SDS011;42354;53.218;6.564;2023-12-20T03:53:48;33.95;;;7.30;;
56455;SDS011;42354;53.218;6.564;2023-12-20T03:56:13;34.67;;;5.78;;
56455;SDS011;42354;53.218;6.564;2023-12-20T03:58:39;33.20;;;4.43;;
56455;SDS011;42354;53.218;6.564;2023-12-20T04:01:08;36.17;;;4.43;;
56455;SDS011;42354;53.218;6.564;2023-12-20T04:03:36;24.17;;;4.47;;
56455;SDS011;42354;53.218;6.564;2023-12-20T04:06:02;36.58;;;4.93;;
56455;SDS011;42354;53.218;6.564;2023-12-20T04:08:28;34.55;;;4.57;;
56455;SDS011;42354;53.218;6.564;2023-12-20T04:10:54;31.48;;;4.60;;
56455;SDS011;42354;53.218;6.564;2023-12-20T04:13:19;38.83;;;4.88;;
56455;SDS011;42354;53.218;6.564;2023-12-20T04:15:45;35.65;;;4.38;;
56455;SDS011;42354;53.218;6.564;2023-12-20T04:18:10;33.20;;;5.15;;
56455;SDS011;42354;53.218;6.564;2023-12-20T04:20:36;32.67;;;4.60;;
56455;SDS011;42354;53.218;6.564;2023-12-20T04:23:01;34.40;;;4.57;;
56455;SDS011;42354;53.218;6.564;2023-12-20T04:25:26;33.20;;;3.60;;
56455;SDS011;42354;53.218;6.564;2023-12-20T04:27:52;27.50;;;3.97;;
56455;SDS011;42354;53.218;6.564;2023-12-20T04:30:17;40.95;;;4.43;;
56455;SDS011;42354;53.218;6.564;2023-12-20T04:32:43;33.75;;;4.07;;
56455;SDS011;42354;53.218;6.564;2023-12-20T04:35:09;34.00;;;5.18;;
56455;SDS011;42354;53.218;6.564;2023-12-20T04:37:35;33.47;;;5.20;;
56455;SDS011;42354;53.218;6.564;2023-12-20T04:40:00;33.47;;;6.30;;
56455;SDS011;42354;53.218;6.564;2023-12-20T04:42:26;36.88;;;7.32;;
56455;SDS011;42354;53.218;6.564;2023-12-20T04:44:52;34.63;;;5.93;;
56455;SDS011;42354;53.218;6.564;2023-12-20T04:47:17;29.35;;;3.95;;
56455;SDS011;42354;53.218;6.564;2023-12-20T04:49:43;32.22;;;5.75;;
56455;SDS011;42354;53.218;6.564;2023-12-20T04:52:09;32.78;;;6.07;;
56455;SDS011;42354;53.218;6.564;2023-12-20T04:54:34;26.40;;;4.25;;
56455;SDS011;42354;53.218;6.564;2023-12-20T04:57:00;42.38;;;5.90;;
56455;SDS011;42354;53.218;6.564;2023-12-20T04:59:25;31.92;;;4.57;;
56455;SDS011;42354;53.218;6.564;2023-12-20T05:01:50;33.85;;;5.88;;
56455;SDS011;42354;53.218;6.564;2023-12-20T05:04:16;30.77;;;4.82;;
56455;SDS011;42354;53.218;6.564;2023-12-20T05:06:42;36.10;;;6.50;;
56455;SDS011;42354;53.218;6.564;2023-12-20T05:09:08;30.42;;;7.30;;
56455;SDS011;42354;53.218;6.564;2023-12-20T05:11:34;34.22;;;4.20;;
56455;SDS011;42354;53.218;6.564;2023-12-20T05:13:59;33.53;;;5.57;;
56455;SDS011;42354;53.218;6.564;2023-12-20T05:16:25;34.78;;;6.13;;
56455;SDS011;42354;53.218;6.564;2023-12-20T05:18:50;36.38;;;4.57;;
56455;SDS011;42354;53.218;6.564;2023-12-20T05:21:17;44.35;;;4.60;;
56455;SDS011;42354;53.218;6.564;2023-12-20T05:23:43;38.13;;;6.30;;
56455;SDS011;42354;53.218;6.564;2023-12-20T05:26:08;38.45;;;4.75;;
56455;SDS011;42354;53.218;6.564;2023-12-20T05:28:34;36.20;;;4.07;;
56455;SDS011;42354;53.218;6.564;2023-12-20T05:30:59;38.15;;;5.30;;
56455;SDS011;42354;53.218;6.564;2023-12-20T05:33:25;38.85;;;6.47;;
56455;SDS011;42354;53.218;6.564;2023-12-20T05:35:51;25.35;;;4.97;;
56455;SDS011;42354;53.218;6.564;2023-12-20T05:38:16;35.58;;;5.25;;
56455;SDS011;42354;53.218;6.564;2023-12-20T05:40:41;32.13;;;3.95;;
56455;SDS011;42354;53.218;6.564;2023-12-20T05:43:07;35.13;;;6.32;;
56455;SDS011;42354;53.218;6.564;2023-12-20T05:45:32;29.23;;;4.78;;
56455;SDS011;42354;53.218;6.564;2023-12-20T05:47:58;27.27;;;4.05;;
56455;SDS011;42354;53.218;6.564;2023-12-20T05:50:24;33.63;;;5.30;;
56455;SDS011;42354;53.218;6.564;2023-12-20T05:52:49;37.55;;;6.38;;
56455;SDS011;42354;53.218;6.564;2023-12-20T05:55:15;33.15;;;5.88;;
56455;SDS011;42354;53.218;6.564;2023-12-20T05:57:40;35.92;;;5.57;;
56455;SDS011;42354;53.218;6.564;2023-12-20T06:00:08;28.75;;;5.13;;
56455;SDS011;42354;53.218;6.564;2023-12-20T06:02:34;30.52;;;5.03;;
56455;SDS011;42354;53.218;6.564;2023-12-20T06:05:03;36.90;;;5.68;;
56455;SDS011;42354;53.218;6.564;2023-12-20T06:07:30;43.28;;;7.53;;
56455;SDS011;42354;53.218;6.564;2023-12-20T06:09:55;33.80;;;7.70;;
56455;SDS011;42354;53.218;6.564;2023-12-20T06:12:21;35.80;;;5.50;;
56455;SDS011;42354;53.218;6.564;2023-12-20T06:14:46;32.42;;;5.95;;
56455;SDS011;42354;53.218;6.564;2023-12-20T06:17:11;42.63;;;5.93;;
56455;SDS011;42354;53.218;6.564;2023-12-20T06:19:37;37.22;;;9.52;;
56455;SDS011;42354;53.218;6.564;2023-12-20T06:22:02;35.85;;;6.18;;
56455;SDS011;42354;53.218;6.564;2023-12-20T06:24:28;30.38;;;5.70;;
56455;SDS011;42354;53.218;6.564;2023-12-20T06:26:55;39.78;;;6.05;;
56455;SDS011;42354;53.218;6.564;2023-12-20T06:29:20;41.30;;;7.03;;
56455;SDS011;42354;53.218;6.564;2023-12-20T06:31:46;42.58;;;6.35;;
56455;SDS011;42354;53.218;6.564;2023-12-20T06:34:11;41.38;;;4.63;;
56455;SDS011;42354;53.218;6.564;2023-12-20T06:36:37;29.30;;;6.15;;
56455;SDS011;42354;53.218;6.564;2023-12-20T06:39:02;32.78;;;5.47;;
56455;SDS011;42354;53.218;6.564;2023-12-20T06:41:30;37.45;;;6.60;;
56455;SDS011;42354;53.218;6.564;2023-12-20T06:43:55;40.10;;;4.95;;
56455;SDS011;42354;53.218;6.564;2023-12-20T06:46:20;25.80;;;4.78;;
56455;SDS011;42354;53.218;6.564;2023-12-20T06:48:46;38.28;;;6.90;;
56455;SDS011;42354;53.218;6.564;2023-12-20T06:51:14;27.75;;;4.22;;
56455;SDS011;42354;53.218;6.564;2023-12-20T06:53:41;40.90;;;7.20;;
56455;SDS011;42354;53.218;6.564;2023-12-20T06:56:06;35.75;;;5.38;;
56455;SDS011;42354;53.218;6.564;2023-12-20T06:58:32;39.00;;;5.22;;
56455;SDS011;42354;53.218;6.564;2023-12-20T07:00:58;33.97;;;4.78;;
56455;SDS011;42354;53.218;6.564;2023-12-20T07:03:23;43.05;;;7.55;;
56455;SDS011;42354;53.218;6.564;2023-12-20T07:05:49;39.97;;;6.82;;
56455;SDS011;42354;53.218;6.564;2023-12-20T07:08:15;29.63;;;5.50;;
56455;SDS011;42354;53.218;6.564;2023-12-20T07:10:41;41.78;;;6.97;;
56455;SDS011;42354;53.218;6.564;2023-12-20T07:13:06;36.35;;;7.28;;
56455;SDS011;42354;53.218;6.564;2023-12-20T07:15:33;31.42;;;7.45;;
56455;SDS011;42354;53.218;6.564;2023-12-20T07:17:58;47.17;;;5.70;;
56455;SDS011;42354;53.218;6.564;2023-12-20T07:20:25;37.13;;;6.00;;
56455;SDS011;42354;53.218;6.564;2023-12-20T07:22:51;32.60;;;6.18;;
56455;SDS011;42354;53.218;6.564;2023-12-20T07:25:16;39.55;;;6.47;;
56455;SDS011;42354;53.218;6.564;2023-12-20T07:27:42;33.00;;;6.53;;
56455;SDS011;42354;53.218;6.564;2023-12-20T07:30:07;38.55;;;5.47;;
56455;SDS011;42354;53.218;6.564;2023-12-20T07:32:33;32.60;;;5.03;;
56455;SDS011;42354;53.218;6.564;2023-12-20T07:34:59;39.97;;;7.78;;
56455;SDS011;42354;53.218;6.564;2023-12-20T07:37:24;40.42;;;8.95;;
56455;SDS011;42354;53.218;6.564;2023-12-20T07:39:51;41.53;;;7.47;;
56455;SDS011;42354;53.218;6.564;2023-12-20T07:42:16;34.58;;;7.05;;
56455;SDS011;42354;53.218;6.564;2023-12-20T07:44:42;41.97;;;6.70;;
56455;SDS011;42354;53.218;6.564;2023-12-20T07:47:07;32.17;;;6.07;;
56455;SDS011;42354;53.218;6.564;2023-12-20T07:49:33;34.60;;;6.38;;
56455;SDS011;42354;53.218;6.564;2023-12-20T07:51:58;37.78;;;8.50;;
56455;SDS011;42354;53.218;6.564;2023-12-20T07:54:24;35.03;;;5.53;;
56455;SDS011;42354;53.218;6.564;2023-12-20T07:56:50;30.45;;;5.85;;
56455;SDS011;42354;53.218;6.564;2023-12-20T07:59:15;35.47;;;5.97;;
56455;SDS011;42354;53.218;6.564;2023-12-20T08:01:41;35.72;;;6.03;;
56455;SDS011;42354;53.218;6.564;2023-12-20T08:04:07;24.38;;;5.30;;
56455;SDS011;42354;53.218;6.564;2023-12-20T08:06:33;32.17;;;6.85;;
56455;SDS011;42354;53.218;6.564;2023-12-20T08:08:58;32.80;;;6.32;;
56455;SDS011;42354;53.218;6.564;2023-12-20T08:11:24;33.85;;;6.75;;
56455;SDS011;42354;53.218;6.564;2023-12-20T08:13:49;32.28;;;5.95;;
56455;SDS011;42354;53.218;6.564;2023-12-20T08:16:15;33.88;;;8.10;;
56455;SDS011;42354;53.218;6.564;2023-12-20T08:18:43;33.28;;;6.82;;
56455;SDS011;42354;53.218;6.564;2023-12-20T08:21:09;35.30;;;9.05;;
56455;SDS011;42354;53.218;6.564;2023-12-20T08:23:34;42.08;;;5.45;;
56455;SDS011;42354;53.218;6.564;2023-12-20T08:26:04;38.20;;;5.45;;
56455;SDS011;42354;53.218;6.564;2023-12-20T08:28:31;32.17;;;6.38;;
56455;SDS011;42354;53.218;6.564;2023-12-20T08:30:56;32.05;;;7.53;;
56455;SDS011;42354;53.218;6.564;2023-12-20T08:33:22;30.67;;;5.70;;
56455;SDS011;42354;53.218;6.564;2023-12-20T08:35:47;32.55;;;7.10;;
56455;SDS011;42354;53.218;6.564;2023-12-20T08:38:13;27.48;;;6.85;;
56455;SDS011;42354;53.218;6.564;2023-12-20T08:40:39;16.90;;;1.88;;
56455;SDS011;42354;53.218;6.564;2023-12-20T08:43:05;8.63;;;1.83;;
56455;SDS011;42354;53.218;6.564;2023-12-20T08:45:31;11.00;;;1.75;;
56455;SDS011;42354;53.218;6.564;2023-12-20T08:47:57;13.52;;;1.90;;
56455;SDS011;42354;53.218;6.564;2023-12-20T08:50:22;12.20;;;2.10;;
56455;SDS011;42354;53.218;6.564;2023-12-20T08:52:48;13.65;;;1.67;;
56455;SDS011;42354;53.218;6.564;2023-12-20T08:55:14;8.60;;;1.20;;
56455;SDS011;42354;53.218;6.564;2023-12-20T08:57:41;9.05;;;1.00;;
56455;SDS011;42354;53.218;6.564;2023-12-20T09:00:07;6.30;;;1.35;;
56455;SDS011;42354;53.218;6.564;2023-12-20T09:02:33;13.45;;;1.95;;
56455;SDS011;42354;53.218;6.564;2023-12-20T09:05:01;14.20;;;1.83;;
56455;SDS011;42354;53.218;6.564;2023-12-20T09:07:27;12.88;;;2.10;;
56455;SDS011;42354;53.218;6.564;2023-12-20T09:09:55;20.10;;;2.60;;
56455;SDS011;42354;53.218;6.564;2023-12-20T09:12:21;16.15;;;2.75;;
56455;SDS011;42354;53.218;6.564;2023-12-20T09:14:48;15.90;;;3.00;;
56455;SDS011;42354;53.218;6.564;2023-12-20T09:17:15;24.52;;;3.20;;
56455;SDS011;42354;53.218;6.564;2023-12-20T09:19:41;29.40;;;3.08;;
56455;SDS011;42354;53.218;6.564;2023-12-20T09:22:09;20.15;;;2.42;;
56455;SDS011;42354;53.218;6.564;2023-12-20T09:24:36;15.40;;;1.75;;
56455;SDS011;42354;53.218;6.564;2023-12-20T09:27:02;19.60;;;2.38;;
56455;SDS011;42354;53.218;6.564;2023-12-20T09:29:27;8.93;;;1.00;;
56455;SDS011;42354;53.218;6.564;2023-12-20T09:31:53;11.30;;;1.45;;
56455;SDS011;42354;53.218;6.564;2023-12-20T09:34:19;13.07;;;1.45;;
56455;SDS011;42354;53.218;6.564;2023-12-20T09:36:44;15.93;;;1.83;;
56455;SDS011;42354;53.218;6.564;2023-12-20T09:39:13;7.63;;;1.40;;
56455;SDS011;42354;53.218;6.564;2023-12-20T09:41:43;14.02;;;1.67;;
56455;SDS011;42354;53.218;6.564;2023-12-20T09:44:15;10.27;;;1.40;;
56455;SDS011;42354;53.218;6.564;2023-12-20T09:46:44;12.07;;;1.60;;
56455;SDS011;42354;53.218;6.564;2023-12-20T09:49:14;13.27;;;1.65;;
56455;SDS011;42354;53.218;6.564;2023-12-20T09:51:43;12.93;;;1.45;;
56455;SDS011;42354;53.218;6.564;2023-12-20T09:54:12;16.13;;;1.48;;
56455;SDS011;42354;53.218;6.564;2023-12-20T09:56:42;11.88;;;1.75;;
56455;SDS011;42354;53.218;6.564;2023-12-20T09:59:08;14.85;;;3.90;;
56455;SDS011;42354;53.218;6.564;2023-12-20T10:01:34;12.52;;;2.47;;
56455;SDS011;42354;53.218;6.564;2023-12-20T10:04:01;12.50;;;2.08;;
56455;SDS011;42354;53.218;6.564;2023-12-20T10:06:37;19.05;;;2.08;;
56455;SDS011;42354;53.218;6.564;2023-12-20T10:09:10;12.65;;;2.00;;
56455;SDS011;42354;53.218;6.564;2023-12-20T10:11:37;9.00;;;1.20;;
56455;SDS011;42354;53.218;6.564;2023-12-20T10:14:04;13.48;;;2.22;;
56455;SDS011;42354;53.218;6.564;2023-12-20T10:16:30;12.95;;;2.47;;
56455;SDS011;42354;53.218;6.564;2023-12-20T10:18:58;28.15;;;4.63;;
56455;SDS011;42354;53.218;6.564;2023-12-20T10:21:23;15.00;;;2.15;;
56455;SDS011;42354;53.218;6.564;2023-12-20T10:23:51;18.85;;;2.53;;
56455;SDS011;42354;53.218;6.564;2023-12-20T10:26:23;12.98;;;2.85;;
56455;SDS011;42354;53.218;6.564;2023-12-20T10:28:59;17.60;;;2.65;;
56455;SDS011;42354;53.218;6.564;2023-12-20T10:31:32;18.88;;;2.30;;
56455;SDS011;42354;53.218;6.564;2023-12-20T10:33:59;15.13;;;2.22;;
56455;SDS011;42354;53.218;6.564;2023-12-20T10:36:26;17.02;;;2.13;;
56455;SDS011;42354;53.218;6.564;2023-12-20T10:38:55;11.82;;;2.05;;
56455;SDS011;42354;53.218;6.564;2023-12-20T10:41:31;16.40;;;1.95;;
56455;SDS011;42354;53.218;6.564;2023-12-20T10:44:01;13.25;;;1.80;;
56455;SDS011;42354;53.218;6.564;2023-12-20T10:46:28;20.20;;;2.50;;
56455;SDS011;42354;53.218;6.564;2023-12-20T10:48:55;11.43;;;1.73;;
56455;SDS011;42354;53.218;6.564;2023-12-20T10:51:22;26.15;;;3.05;;
56455;SDS011;42354;53.218;6.564;2023-12-20T10:53:51;19.55;;;3.00;;
56455;SDS011;42354;53.218;6.564;2023-12-20T10:56:18;21.27;;;2.78;;
56455;SDS011;42354;53.218;6.564;2023-12-20T10:58:47;12.85;;;2.88;;
56455;SDS011;42354;53.218;6.564;2023-12-20T11:01:14;20.20;;;2.78;;
56455;SDS011;42354;53.218;6.564;2023-12-20T11:03:45;18.45;;;3.80;;
56455;SDS011;42354;53.218;6.564;2023-12-20T11:06:19;15.98;;;2.40;;
56455;SDS011;42354;53.218;6.564;2023-12-20T11:12:02;12.75;;;2.35;;
56455;SDS011;42354;53.218;6.564;2023-12-20T11:17:12;23.33;;;2.35;;
56455;SDS011;42354;53.218;6.564;2023-12-20T11:22:21;22.05;;;3.85;;
56455;SDS011;42354;53.218;6.564;2023-12-20T11:24:47;24.48;;;3.72;;
56455;SDS011;42354;53.218;6.564;2023-12-20T11:27:14;16.27;;;2.53;;
56455;SDS011;42354;53.218;6.564;2023-12-20T11:29:40;24.48;;;4.40;;
56455;SDS011;42354;53.218;6.564;2023-12-20T11:35:39;18.42;;;2.95;;
56455;SDS011;42354;53.218;6.564;2023-12-20T11:37:40;29.58;;;3.40;;
56455;SDS011;42354;53.218;6.564;2023-12-20T11:40:16;23.35;;;2.80;;
56455;SDS011;42354;53.218;6.564;2023-12-20T11:42:43;21.30;;;3.35;;
56455;SDS011;42354;53.218;6.564;2023-12-20T11:45:13;27.13;;;4.15;;
56455;SDS011;42354;53.218;6.564;2023-12-20T11:47:45;23.65;;;3.75;;
56455;SDS011;42354;53.218;6.564;2023-12-20T11:50:17;21.80;;;4.65;;
56455;SDS011;42354;53.218;6.564;2023-12-20T11:52:43;23.75;;;4.40;;
56455;SDS011;42354;53.218;6.564;2023-12-20T11:55:09;25.38;;;3.75;;
56455;SDS011;42354;53.218;6.564;2023-12-20T11:57:35;32.65;;;5.47;;
56455;SDS011;42354;53.218;6.564;2023-12-20T12:00:01;24.38;;;4.03;;
56455;SDS011;42354;53.218;6.564;2023-12-20T12:02:31;25.55;;;4.22;;
56455;SDS011;42354;53.218;6.564;2023-12-20T12:04:57;23.75;;;3.80;;
56455;SDS011;42354;53.218;6.564;2023-12-20T12:07:24;19.58;;;4.25;;
56455;SDS011;42354;53.218;6.564;2023-12-20T12:09:50;22.90;;;3.45;;
56455;SDS011;42354;53.218;6.564;2023-12-20T12:12:16;20.77;;;3.90;;
56455;SDS011;42354;53.218;6.564;2023-12-20T12:14:44;20.88;;;4.00;;
56455;SDS011;42354;53.218;6.564;2023-12-20T12:17:11;27.48;;;3.03;;
56455;SDS011;42354;53.218;6.564;2023-12-20T12:19:41;19.38;;;3.53;;
56455;SDS011;42354;53.218;6.564;2023-12-20T12:22:08;24.77;;;3.53;;
56455;SDS011;42354;53.218;6.564;2023-12-20T12:24:42;22.15;;;3.60;;
56455;SDS011;42354;53.218;6.564;2023-12-20T12:27:09;24.73;;;3.85;;
56455;SDS011;42354;53.218;6.564;2023-12-20T12:29:35;20.10;;;3.15;;
56455;SDS011;42354;53.218;6.564;2023-12-20T12:32:05;22.58;;;3.35;;
56455;SDS011;42354;53.218;6.564;2023-12-20T12:34:32;19.45;;;3.28;;
56455;SDS011;42354;53.218;6.564;2023-12-20T12:36:58;20.38;;;2.85;;
56455;SDS011;42354;53.218;6.564;2023-12-20T12:39:23;28.15;;;2.60;;
56455;SDS011;42354;53.218;6.564;2023-12-20T12:41:53;19.58;;;2.30;;
56455;SDS011;42354;53.218;6.564;2023-12-20T12:44:19;19.25;;;3.33;;
56455;SDS011;42354;53.218;6.564;2023-12-20T12:46:48;15.23;;;2.75;;
56455;SDS011;42354;53.218;6.564;2023-12-20T12:49:16;13.55;;;2.42;;
56455;SDS011;42354;53.218;6.564;2023-12-20T12:51:42;18.02;;;2.67;;
56455;SDS011;42354;53.218;6.564;2023-12-20T12:54:09;17.10;;;3.25;;
56455;SDS011;42354;53.218;6.564;2023-12-20T12:56:35;20.55;;;3.15;;
56455;SDS011;42354;53.218;6.564;2023-12-20T12:59:01;12.65;;;2.60;;
56455;SDS011;42354;53.218;6.564;2023-12-20T13:01:27;21.15;;;3.30;;
56455;SDS011;42354;53.218;6.564;2023-12-20T13:03:52;15.27;;;2.03;;
56455;SDS011;42354;53.218;6.564;2023-12-20T13:06:19;18.30;;;2.97;;
56455;SDS011;42354;53.218;6.564;2023-12-20T13:08:44;18.58;;;2.53;;
56455;SDS011;42354;53.218;6.564;2023-12-20T13:11:10;15.93;;;2.25;;
56455;SDS011;42354;53.218;6.564;2023-12-20T13:13:35;26.33;;;3.22;;
56455;SDS011;42354;53.218;6.564;2023-12-20T13:16:01;23.67;;;2.75;;
56455;SDS011;42354;53.218;6.564;2023-12-20T13:18:27;20.85;;;3.10;;
56455;SDS011;42354;53.218;6.564;2023-12-20T13:20:53;21.52;;;3.42;;
56455;SDS011;42354;53.218;6.564;2023-12-20T13:23:19;11.98;;;2.47;;
56455;SDS011;42354;53.218;6.564;2023-12-20T13:25:44;20.13;;;3.20;;
56455;SDS011;42354;53.218;6.564;2023-12-20T13:28:13;21.25;;;3.20;;
56455;SDS011;42354;53.218;6.564;2023-12-20T13:30:39;19.85;;;3.28;;
56455;SDS011;42354;53.218;6.564;2023-12-20T13:33:05;22.00;;;2.72;;
56455;SDS011;42354;53.218;6.564;2023-12-20T13:35:31;20.88;;;2.92;;
56455;SDS011;42354;53.218;6.564;2023-12-20T13:37:58;28.00;;;4.03;;
56455;SDS011;42354;53.218;6.564;2023-12-20T13:40:24;20.63;;;2.95;;
56455;SDS011;42354;53.218;6.564;2023-12-20T13:42:50;16.10;;;3.25;;
56455;SDS011;42354;53.218;6.564;2023-12-20T13:45:15;21.88;;;4.47;;
56455;SDS011;42354;53.218;6.564;2023-12-20T13:47:41;18.02;;;3.67;;
56455;SDS011;42354;53.218;6.564;2023-12-20T13:50:06;22.70;;;3.53;;
56455;SDS011;42354;53.218;6.564;2023-12-20T13:52:32;18.35;;;3.00;;
56455;SDS011;42354;53.218;6.564;2023-12-20T13:54:58;10.02;;;3.08;;
56455;SDS011;42354;53.218;6.564;2023-12-20T13:57:23;16.58;;;2.67;;
56455;SDS011;42354;53.218;6.564;2023-12-20T13:59:49;14.85;;;2.08;;
56455;SDS011;42354;53.218;6.564;2023-12-20T14:02:14;19.90;;;2.28;;
56455;SDS011;42354;53.218;6.564;2023-12-20T14:04:41;12.65;;;2.05;;
56455;SDS011;42354;53.218;6.564;2023-12-20T14:07:07;17.17;;;2.38;;
56455;SDS011;42354;53.218;6.564;2023-12-20T14:09:34;17.30;;;1.65;;
56455;SDS011;42354;53.218;6.564;2023-12-20T14:12:00;10.90;;;2.17;;
56455;SDS011;42354;53.218;6.564;2023-12-20T14:14:25;13.23;;;2.42;;
56455;SDS011;42354;53.218;6.564;2023-12-20T14:16:51;14.30;;;1.80;;
56455;SDS011;42354;53.218;6.564;2023-12-20T14:19:16;20.67;;;2.45;;
56455;SDS011;42354;53.218;6.564;2023-12-20T14:21:42;13.48;;;2.00;;
56455;SDS011;42354;53.218;6.564;2023-12-20T14:24:07;14.60;;;2.13;;
56455;SDS011;42354;53.218;6.564;2023-12-20T14:26:34;11.45;;;1.90;;
56455;SDS011;42354;53.218;6.564;2023-12-20T14:28:59;21.33;;;1.75;;
56455;SDS011;42354;53.218;6.564;2023-12-20T14:31:25;15.15;;;2.30;;
56455;SDS011;42354;53.218;6.564;2023-12-20T14:33:50;13.23;;;3.08;;
56455;SDS011;42354;53.218;6.564;2023-12-20T14:36:18;11.90;;;3.63;;
56455;SDS011;42354;53.218;6.564;2023-12-20T14:38:45;12.38;;;2.90;;
56455;SDS011;42354;53.218;6.564;2023-12-20T14:41:12;9.77;;;1.75;;